sensor_id;sensor_type;location;lat;lon;timestamp;temperature;humidity
1135;DHT22;556;53.550;10.048;2022-07-29T00:00:40;18.50;39.60
1135;DHT22;556;53.550;10.048;2022-07-29T00:03:10;18.50;39.70
1135;DHT22;556;53.550;10.048;2022-07-29T00:05:40;18.50;39.80
1135;DHT22;556;53.550;10.048;2022-07-29T00:08:07;18.40;39.80
1135;DHT22;556;53.550;10.048;2022-07-29T00:10:35;18.40;39.50
1135;DHT22;556;53.550;10.048;2022-07-29T00:13:02;18.40;39.90
1135;DHT22;556;53.550;10.048;2022-07-29T00:15:29;18.30;39.50
1135;DHT22;556;53.550;10.048;2022-07-29T00:17:56;18.30;40.00
1135;DHT22;556;53.550;10.048;2022-07-29T00:20:23;18.30;40.00
1135;DHT22;556;53.550;10.048;2022-07-29T00:22:52;18.30;40.10
1135;DHT22;556;53.550;10.048;2022-07-29T00:25:19;18.20;40.10
1135;DHT22;556;53.550;10.048;2022-07-29T00:27:46;18.20;40.20
1135;DHT22;556;53.550;10.048;2022-07-29T00:30:13;18.20;40.30
1135;DHT22;556;53.550;10.048;2022-07-29T00:32:40;18.10;40.30
1135;DHT22;556;53.550;10.048;2022-07-29T00:35:09;18.10;40.40
1135;DHT22;556;53.550;10.048;2022-07-29T00:37:55;18.10;40.40
1135;DHT22;556;53.550;10.048;2022-07-29T00:40:22;18.00;40.40
1135;DHT22;556;53.550;10.048;2022-07-29T00:42:51;18.00;40.50
1135;DHT22;556;53.550;10.048;2022-07-29T00:45:19;18.00;40.60
1135;DHT22;556;53.550;10.048;2022-07-29T00:47:48;17.90;40.50
1135;DHT22;556;53.550;10.048;2022-07-29T00:50:15;17.90;40.60
1135;DHT22;556;53.550;10.048;2022-07-29T00:52:43;17.80;40.30
1135;DHT22;556;53.550;10.048;2022-07-29T00:55:12;17.80;40.70
1135;DHT22;556;53.550;10.048;2022-07-29T00:57:41;17.80;40.30
1135;DHT22;556;53.550;10.048;2022-07-29T01:00:11;17.80;40.80
1135;DHT22;556;53.550;10.048;2022-07-29T01:02:38;17.80;40.90
1135;DHT22;556;53.550;10.048;2022-07-29T01:05:06;17.70;40.80
1135;DHT22;556;53.550;10.048;2022-07-29T01:07:35;17.70;40.40
1135;DHT22;556;53.550;10.048;2022-07-29T01:10:03;17.70;41.00
1135;DHT22;556;53.550;10.048;2022-07-29T01:12:33;17.70;41.00
1135;DHT22;556;53.550;10.048;2022-07-29T01:15:02;17.60;40.60
1135;DHT22;556;53.550;10.048;2022-07-29T01:17:33;17.60;41.10
1135;DHT22;556;53.550;10.048;2022-07-29T01:20:12;17.60;41.10
1135;DHT22;556;53.550;10.048;2022-07-29T01:23:01;17.60;41.10
1135;DHT22;556;53.550;10.048;2022-07-29T01:25:54;17.60;41.20
1135;DHT22;556;53.550;10.048;2022-07-29T01:28:49;17.60;40.60
1135;DHT22;556;53.550;10.048;2022-07-29T01:31:22;17.60;41.20
1135;DHT22;556;53.550;10.048;2022-07-29T01:33:57;17.60;41.00
1135;DHT22;556;53.550;10.048;2022-07-29T01:36:30;17.60;41.10
1135;DHT22;556;53.550;10.048;2022-07-29T01:39:04;17.70;41.10
1135;DHT22;556;53.550;10.048;2022-07-29T01:41:35;17.70;41.10
1135;DHT22;556;53.550;10.048;2022-07-29T01:44:12;17.70;41.10
1135;DHT22;556;53.550;10.048;2022-07-29T01:46:45;17.70;40.60
1135;DHT22;556;53.550;10.048;2022-07-29T01:49:17;17.80;41.20
1135;DHT22;556;53.550;10.048;2022-07-29T01:51:48;17.80;41.20
1135;DHT22;556;53.550;10.048;2022-07-29T01:54:20;17.80;41.20
1135;DHT22;556;53.550;10.048;2022-07-29T01:56:49;17.80;41.20
1135;DHT22;556;53.550;10.048;2022-07-29T01:59:20;17.80;41.20
1135;DHT22;556;53.550;10.048;2022-07-29T02:01:50;17.80;41.20
1135;DHT22;556;53.550;10.048;2022-07-29T02:04:20;17.90;41.30
1135;DHT22;556;53.550;10.048;2022-07-29T02:06:49;17.90;41.30
1135;DHT22;556;53.550;10.048;2022-07-29T02:09:17;17.90;41.30
1135;DHT22;556;53.550;10.048;2022-07-29T02:11:49;17.90;41.30
1135;DHT22;556;53.550;10.048;2022-07-29T02:14:21;17.90;40.90
1135;DHT22;556;53.550;10.048;2022-07-29T02:16:52;17.90;41.40
1135;DHT22;556;53.550;10.048;2022-07-29T02:19:22;17.90;41.00
1135;DHT22;556;53.550;10.048;2022-07-29T02:21:51;18.00;41.40
1135;DHT22;556;53.550;10.048;2022-07-29T02:24:22;18.00;41.40
1135;DHT22;556;53.550;10.048;2022-07-29T02:26:51;18.00;41.40
1135;DHT22;556;53.550;10.048;2022-07-29T02:29:24;18.10;41.10
1135;DHT22;556;53.550;10.048;2022-07-29T02:31:55;18.10;41.50
1135;DHT22;556;53.550;10.048;2022-07-29T02:34:24;18.10;41.50
1135;DHT22;556;53.550;10.048;2022-07-29T02:36:52;18.10;41.50
1135;DHT22;556;53.550;10.048;2022-07-29T02:39:21;18.10;41.50
1135;DHT22;556;53.550;10.048;2022-07-29T02:41:51;18.20;41.60
1135;DHT22;556;53.550;10.048;2022-07-29T02:44:24;18.20;41.60
1135;DHT22;556;53.550;10.048;2022-07-29T02:46:55;18.20;41.70
1135;DHT22;556;53.550;10.048;2022-07-29T02:49:34;18.20;41.70
1135;DHT22;556;53.550;10.048;2022-07-29T02:52:04;18.20;41.70
1135;DHT22;556;53.550;10.048;2022-07-29T02:54:38;18.20;41.70
1135;DHT22;556;53.550;10.048;2022-07-29T02:57:14;18.20;41.30
1135;DHT22;556;53.550;10.048;2022-07-29T02:59:47;18.20;42.30
1135;DHT22;556;53.550;10.048;2022-07-29T03:02:15;18.20;41.80
1135;DHT22;556;53.550;10.048;2022-07-29T03:04:43;18.20;41.40
1135;DHT22;556;53.550;10.048;2022-07-29T03:07:14;18.20;41.40
1135;DHT22;556;53.550;10.048;2022-07-29T03:09:42;18.20;41.80
1135;DHT22;556;53.550;10.048;2022-07-29T03:12:11;18.20;41.40
1135;DHT22;556;53.550;10.048;2022-07-29T03:14:39;18.30;41.90
1135;DHT22;556;53.550;10.048;2022-07-29T03:17:09;18.30;42.00
1135;DHT22;556;53.550;10.048;2022-07-29T03:19:36;18.30;42.00
1135;DHT22;556;53.550;10.048;2022-07-29T03:22:04;18.30;42.00
1135;DHT22;556;53.550;10.048;2022-07-29T03:24:33;18.30;41.60
1135;DHT22;556;53.550;10.048;2022-07-29T03:27:01;18.30;42.00
1135;DHT22;556;53.550;10.048;2022-07-29T03:29:29;18.30;42.10
1135;DHT22;556;53.550;10.048;2022-07-29T03:31:56;18.30;42.00
1135;DHT22;556;53.550;10.048;2022-07-29T03:34:24;18.40;42.10
1135;DHT22;556;53.550;10.048;2022-07-29T03:36:51;18.40;42.10
1135;DHT22;556;53.550;10.048;2022-07-29T03:39:22;18.40;42.10
1135;DHT22;556;53.550;10.048;2022-07-29T03:41:53;18.50;42.20
1135;DHT22;556;53.550;10.048;2022-07-29T03:44:22;18.50;42.20
1135;DHT22;556;53.550;10.048;2022-07-29T03:46:51;18.50;42.10
1135;DHT22;556;53.550;10.048;2022-07-29T03:49:20;18.50;42.20
1135;DHT22;556;53.550;10.048;2022-07-29T03:51:49;18.60;42.20
1135;DHT22;556;53.550;10.048;2022-07-29T03:54:17;18.60;42.20
1135;DHT22;556;53.550;10.048;2022-07-29T03:56:46;18.60;42.20
1135;DHT22;556;53.550;10.048;2022-07-29T04:01:42;18.70;41.80
1135;DHT22;556;53.550;10.048;2022-07-29T04:04:10;18.70;42.30
1135;DHT22;556;53.550;10.048;2022-07-29T04:06:39;18.70;42.30
1135;DHT22;556;53.550;10.048;2022-07-29T04:09:08;18.70;42.20
1135;DHT22;556;53.550;10.048;2022-07-29T04:11:36;18.80;42.30
1135;DHT22;556;53.550;10.048;2022-07-29T04:14:03;18.80;42.30
1135;DHT22;556;53.550;10.048;2022-07-29T04:16:31;18.80;42.20
1135;DHT22;556;53.550;10.048;2022-07-29T04:18:58;18.90;42.30
1135;DHT22;556;53.550;10.048;2022-07-29T04:21:25;18.90;42.30
1135;DHT22;556;53.550;10.048;2022-07-29T04:23:53;18.90;42.20
1135;DHT22;556;53.550;10.048;2022-07-29T04:26:21;19.00;41.80
1135;DHT22;556;53.550;10.048;2022-07-29T04:28:48;19.00;41.80
1135;DHT22;556;53.550;10.048;2022-07-29T04:31:15;19.10;42.30
1135;DHT22;556;53.550;10.048;2022-07-29T04:33:42;19.10;41.80
1135;DHT22;556;53.550;10.048;2022-07-29T04:36:09;19.10;42.10
1135;DHT22;556;53.550;10.048;2022-07-29T04:38:38;19.20;42.20
1135;DHT22;556;53.550;10.048;2022-07-29T04:41:05;19.20;42.10
1135;DHT22;556;53.550;10.048;2022-07-29T04:43:35;19.30;42.20
1135;DHT22;556;53.550;10.048;2022-07-29T04:46:02;19.30;42.10
1135;DHT22;556;53.550;10.048;2022-07-29T04:48:29;19.40;41.70
1135;DHT22;556;53.550;10.048;2022-07-29T04:50:57;19.40;42.10
1135;DHT22;556;53.550;10.048;2022-07-29T04:53:25;19.40;42.10
1135;DHT22;556;53.550;10.048;2022-07-29T04:55:52;19.50;42.10
1135;DHT22;556;53.550;10.048;2022-07-29T04:58:20;19.60;42.10
1135;DHT22;556;53.550;10.048;2022-07-29T05:00:50;19.60;42.10
1135;DHT22;556;53.550;10.048;2022-07-29T05:03:17;19.70;41.60
1135;DHT22;556;53.550;10.048;2022-07-29T05:05:44;19.80;42.00
1135;DHT22;556;53.550;10.048;2022-07-29T05:08:12;19.90;41.90
1135;DHT22;556;53.550;10.048;2022-07-29T05:10:39;20.00;41.40
1135;DHT22;556;53.550;10.048;2022-07-29T05:13:09;20.10;41.90
1135;DHT22;556;53.550;10.048;2022-07-29T05:15:36;20.20;41.30
1135;DHT22;556;53.550;10.048;2022-07-29T05:18:05;20.20;41.80
1135;DHT22;556;53.550;10.048;2022-07-29T05:20:32;20.30;41.80
1135;DHT22;556;53.550;10.048;2022-07-29T05:23:00;20.40;41.70
1135;DHT22;556;53.550;10.048;2022-07-29T05:25:30;20.50;41.20
1135;DHT22;556;53.550;10.048;2022-07-29T05:27:57;20.60;41.60
1135;DHT22;556;53.550;10.048;2022-07-29T05:30:24;20.70;41.60
1135;DHT22;556;53.550;10.048;2022-07-29T05:32:52;20.80;41.70
1135;DHT22;556;53.550;10.048;2022-07-29T05:35:20;20.90;41.60
1135;DHT22;556;53.550;10.048;2022-07-29T05:37:47;21.00;41.50
1135;DHT22;556;53.550;10.048;2022-07-29T05:40:14;21.10;40.90
1135;DHT22;556;53.550;10.048;2022-07-29T05:42:41;21.30;41.40
1135;DHT22;556;53.550;10.048;2022-07-29T05:45:09;21.40;41.30
1135;DHT22;556;53.550;10.048;2022-07-29T05:47:36;21.50;41.30
1135;DHT22;556;53.550;10.048;2022-07-29T05:50:04;21.60;40.70
1135;DHT22;556;53.550;10.048;2022-07-29T05:52:33;21.60;41.10
1135;DHT22;556;53.550;10.048;2022-07-29T05:55:00;21.70;41.10
1135;DHT22;556;53.550;10.048;2022-07-29T05:57:32;21.80;41.00
1135;DHT22;556;53.550;10.048;2022-07-29T05:59:59;22.00;41.00
1135;DHT22;556;53.550;10.048;2022-07-29T06:02:26;22.10;40.80
1135;DHT22;556;53.550;10.048;2022-07-29T06:04:53;22.20;40.80
1135;DHT22;556;53.550;10.048;2022-07-29T06:07:20;22.30;40.70
1135;DHT22;556;53.550;10.048;2022-07-29T06:09:49;22.40;40.70
1135;DHT22;556;53.550;10.048;2022-07-29T06:12:16;22.50;40.60
1135;DHT22;556;53.550;10.048;2022-07-29T06:14:43;22.60;40.20
1135;DHT22;556;53.550;10.048;2022-07-29T06:17:10;22.80;40.60
1135;DHT22;556;53.550;10.048;2022-07-29T06:19:37;22.90;40.50
1135;DHT22;556;53.550;10.048;2022-07-29T06:22:04;23.10;40.40
1135;DHT22;556;53.550;10.048;2022-07-29T06:24:31;23.20;39.80
1135;DHT22;556;53.550;10.048;2022-07-29T06:27:00;23.30;40.20
1135;DHT22;556;53.550;10.048;2022-07-29T06:29:27;23.50;39.70
1135;DHT22;556;53.550;10.048;2022-07-29T06:31:54;23.50;40.10
1135;DHT22;556;53.550;10.048;2022-07-29T06:34:21;23.60;40.00
1135;DHT22;556;53.550;10.048;2022-07-29T06:36:48;23.70;40.00
1135;DHT22;556;53.550;10.048;2022-07-29T06:39:16;23.80;40.10
1135;DHT22;556;53.550;10.048;2022-07-29T06:41:46;23.70;40.10
1135;DHT22;556;53.550;10.048;2022-07-29T06:44:15;23.80;39.60
1135;DHT22;556;53.550;10.048;2022-07-29T06:46:42;23.90;40.10
1135;DHT22;556;53.550;10.048;2022-07-29T06:49:09;23.90;40.00
1135;DHT22;556;53.550;10.048;2022-07-29T06:51:38;24.00;40.00
1135;DHT22;556;53.550;10.048;2022-07-29T06:54:05;24.10;39.40
1135;DHT22;556;53.550;10.048;2022-07-29T06:56:33;24.10;39.90
1135;DHT22;556;53.550;10.048;2022-07-29T06:59:03;24.10;39.80
1135;DHT22;556;53.550;10.048;2022-07-29T07:01:31;24.10;39.30
1135;DHT22;556;53.550;10.048;2022-07-29T07:03:58;24.10;39.70
1135;DHT22;556;53.550;10.048;2022-07-29T07:06:25;24.10;39.20
1135;DHT22;556;53.550;10.048;2022-07-29T07:08:53;24.30;39.10
1135;DHT22;556;53.550;10.048;2022-07-29T07:11:20;24.30;39.10
1135;DHT22;556;53.550;10.048;2022-07-29T07:13:47;24.30;39.50
1135;DHT22;556;53.550;10.048;2022-07-29T07:16:15;24.40;39.10
1135;DHT22;556;53.550;10.048;2022-07-29T07:18:43;24.40;39.50
1135;DHT22;556;53.550;10.048;2022-07-29T07:21:11;24.40;39.40
1135;DHT22;556;53.550;10.048;2022-07-29T07:23:38;24.40;39.00
1135;DHT22;556;53.550;10.048;2022-07-29T07:26:05;24.40;38.90
1135;DHT22;556;53.550;10.048;2022-07-29T07:28:32;24.50;39.00
1135;DHT22;556;53.550;10.048;2022-07-29T07:30:59;24.50;39.50
1135;DHT22;556;53.550;10.048;2022-07-29T07:33:26;24.50;39.40
1135;DHT22;556;53.550;10.048;2022-07-29T07:35:55;24.70;39.40
1135;DHT22;556;53.550;10.048;2022-07-29T07:40:50;24.90;38.70
1135;DHT22;556;53.550;10.048;2022-07-29T07:43:17;24.90;39.20
1135;DHT22;556;53.550;10.048;2022-07-29T07:45:44;25.00;39.00
1135;DHT22;556;53.550;10.048;2022-07-29T07:48:11;25.20;38.50
1135;DHT22;556;53.550;10.048;2022-07-29T07:50:38;25.30;38.90
1135;DHT22;556;53.550;10.048;2022-07-29T07:53:06;25.50;38.80
1135;DHT22;556;53.550;10.048;2022-07-29T07:55:33;25.60;38.10
1135;DHT22;556;53.550;10.048;2022-07-29T07:58:06;25.80;38.10
1135;DHT22;556;53.550;10.048;2022-07-29T08:00:33;25.90;38.50
1135;DHT22;556;53.550;10.048;2022-07-29T08:03:00;26.00;38.80
1135;DHT22;556;53.550;10.048;2022-07-29T08:05:27;26.20;37.50
1135;DHT22;556;53.550;10.048;2022-07-29T08:07:54;26.30;38.00
1135;DHT22;556;53.550;10.048;2022-07-29T08:10:23;26.40;37.90
1135;DHT22;556;53.550;10.048;2022-07-29T08:13:09;26.50;37.80
1135;DHT22;556;53.550;10.048;2022-07-29T08:15:39;26.60;37.70
1135;DHT22;556;53.550;10.048;2022-07-29T08:18:07;26.70;37.60
1135;DHT22;556;53.550;10.048;2022-07-29T08:20:35;26.80;37.50
1135;DHT22;556;53.550;10.048;2022-07-29T08:23:04;26.80;37.40
1135;DHT22;556;53.550;10.048;2022-07-29T08:25:33;26.90;37.30
1135;DHT22;556;53.550;10.048;2022-07-29T08:28:00;27.00;36.80
1135;DHT22;556;53.550;10.048;2022-07-29T08:30:27;27.00;36.70
1135;DHT22;556;53.550;10.048;2022-07-29T08:32:55;27.00;37.70
1135;DHT22;556;53.550;10.048;2022-07-29T08:35:23;27.10;37.00
1135;DHT22;556;53.550;10.048;2022-07-29T08:37:51;27.10;36.90
1135;DHT22;556;53.550;10.048;2022-07-29T08:40:19;27.20;37.00
1135;DHT22;556;53.550;10.048;2022-07-29T08:42:47;27.00;36.50
1135;DHT22;556;53.550;10.048;2022-07-29T08:45:14;27.00;37.00
1135;DHT22;556;53.550;10.048;2022-07-29T08:47:44;27.00;37.00
1135;DHT22;556;53.550;10.048;2022-07-29T08:50:12;26.90;36.50
1135;DHT22;556;53.550;10.048;2022-07-29T08:52:40;26.90;37.00
1135;DHT22;556;53.550;10.048;2022-07-29T08:55:09;26.90;37.00
1135;DHT22;556;53.550;10.048;2022-07-29T08:57:38;26.80;37.00
1135;DHT22;556;53.550;10.048;2022-07-29T09:00:09;26.80;37.10
1135;DHT22;556;53.550;10.048;2022-07-29T09:02:40;26.70;37.10
1135;DHT22;556;53.550;10.048;2022-07-29T09:05:08;26.80;36.60
1135;DHT22;556;53.550;10.048;2022-07-29T09:07:36;26.80;37.00
1135;DHT22;556;53.550;10.048;2022-07-29T09:10:05;26.90;36.90
1135;DHT22;556;53.550;10.048;2022-07-29T09:12:32;27.00;36.80
1135;DHT22;556;53.550;10.048;2022-07-29T09:14:59;27.20;36.70
1135;DHT22;556;53.550;10.048;2022-07-29T09:17:41;27.40;36.00
1135;DHT22;556;53.550;10.048;2022-07-29T09:20:10;27.40;35.90
1135;DHT22;556;53.550;10.048;2022-07-29T09:22:38;27.40;36.40
1135;DHT22;556;53.550;10.048;2022-07-29T09:25:06;27.40;36.40
1135;DHT22;556;53.550;10.048;2022-07-29T09:27:33;27.60;36.20
1135;DHT22;556;53.550;10.048;2022-07-29T09:30:03;28.10;35.30
1135;DHT22;556;53.550;10.048;2022-07-29T09:32:31;28.20;35.20
1135;DHT22;556;53.550;10.048;2022-07-29T09:35:17;28.30;35.70
1135;DHT22;556;53.550;10.048;2022-07-29T09:37:45;28.40;35.50
1135;DHT22;556;53.550;10.048;2022-07-29T09:40:14;28.60;35.30
1135;DHT22;556;53.550;10.048;2022-07-29T09:42:42;28.80;35.10
1135;DHT22;556;53.550;10.048;2022-07-29T09:45:10;29.00;35.00
1135;DHT22;556;53.550;10.048;2022-07-29T09:47:43;29.30;34.80
1135;DHT22;556;53.550;10.048;2022-07-29T09:50:14;29.50;34.60
1135;DHT22;556;53.550;10.048;2022-07-29T09:52:46;29.90;33.50
1135;DHT22;556;53.550;10.048;2022-07-29T09:55:14;30.00;33.80
1135;DHT22;556;53.550;10.048;2022-07-29T09:57:42;30.20;33.70
1135;DHT22;556;53.550;10.048;2022-07-29T10:00:11;30.40;33.50
1135;DHT22;556;53.550;10.048;2022-07-29T10:02:40;30.50;33.30
1135;DHT22;556;53.550;10.048;2022-07-29T10:05:19;30.60;33.10
1135;DHT22;556;53.550;10.048;2022-07-29T10:07:48;30.70;32.90
1135;DHT22;556;53.550;10.048;2022-07-29T10:10:21;30.70;32.90
1135;DHT22;556;53.550;10.048;2022-07-29T10:12:50;30.80;32.80
1135;DHT22;556;53.550;10.048;2022-07-29T10:15:18;31.20;32.00
1135;DHT22;556;53.550;10.048;2022-07-29T10:17:45;31.20;32.40
1135;DHT22;556;53.550;10.048;2022-07-29T10:20:14;31.40;32.20
1135;DHT22;556;53.550;10.048;2022-07-29T10:22:42;31.50;31.30
1135;DHT22;556;53.550;10.048;2022-07-29T10:25:12;31.60;31.70
1135;DHT22;556;53.550;10.048;2022-07-29T10:27:41;31.70;31.10
1135;DHT22;556;53.550;10.048;2022-07-29T10:30:10;31.70;31.50
1135;DHT22;556;53.550;10.048;2022-07-29T10:32:50;31.80;30.80
1135;DHT22;556;53.550;10.048;2022-07-29T10:35:25;31.80;30.70
1135;DHT22;556;53.550;10.048;2022-07-29T10:38:08;32.00;31.20
1135;DHT22;556;53.550;10.048;2022-07-29T10:40:45;32.30;30.30
1135;DHT22;556;53.550;10.048;2022-07-29T10:43:33;32.20;30.80
1135;DHT22;556;53.550;10.048;2022-07-29T10:46:04;32.40;30.10
1135;DHT22;556;53.550;10.048;2022-07-29T10:48:31;32.50;30.60
1135;DHT22;556;53.550;10.048;2022-07-29T10:51:01;32.50;30.50
1135;DHT22;556;53.550;10.048;2022-07-29T10:53:48;32.60;30.40
1135;DHT22;556;53.550;10.048;2022-07-29T10:56:25;32.70;30.20
1135;DHT22;556;53.550;10.048;2022-07-29T10:59:23;32.90;29.70
1135;DHT22;556;53.550;10.048;2022-07-29T11:01:52;32.90;29.80
1135;DHT22;556;53.550;10.048;2022-07-29T11:04:59;32.90;30.10
1135;DHT22;556;53.550;10.048;2022-07-29T11:07:27;33.10;30.00
1135;DHT22;556;53.550;10.048;2022-07-29T11:10:21;33.50;29.90
1135;DHT22;556;53.550;10.048;2022-07-29T11:12:48;33.60;29.60
1135;DHT22;556;53.550;10.048;2022-07-29T11:15:19;33.70;29.60
1135;DHT22;556;53.550;10.048;2022-07-29T11:18:06;33.90;29.40
1135;DHT22;556;53.550;10.048;2022-07-29T11:20:38;34.00;29.20
1135;DHT22;556;53.550;10.048;2022-07-29T11:23:24;34.40;28.70
1135;DHT22;556;53.550;10.048;2022-07-29T11:26:17;34.40;28.90
1135;DHT22;556;53.550;10.048;2022-07-29T11:28:54;34.50;28.70
1135;DHT22;556;53.550;10.048;2022-07-29T11:31:35;34.50;28.80
1135;DHT22;556;53.550;10.048;2022-07-29T11:34:21;34.30;28.10
1135;DHT22;556;53.550;10.048;2022-07-29T11:37:14;34.30;28.50
1135;DHT22;556;53.550;10.048;2022-07-29T11:39:43;34.30;28.10
1135;DHT22;556;53.550;10.048;2022-07-29T11:42:39;34.30;28.60
1135;DHT22;556;53.550;10.048;2022-07-29T11:45:09;34.20;28.10
1135;DHT22;556;53.550;10.048;2022-07-29T11:47:40;34.20;28.40
1135;DHT22;556;53.550;10.048;2022-07-29T11:50:10;34.00;28.50
1135;DHT22;556;53.550;10.048;2022-07-29T11:52:38;33.90;28.40
1135;DHT22;556;53.550;10.048;2022-07-29T11:55:14;33.90;28.00
1135;DHT22;556;53.550;10.048;2022-07-29T11:57:50;33.90;27.90
1135;DHT22;556;53.550;10.048;2022-07-29T12:00:23;33.90;28.20
1135;DHT22;556;53.550;10.048;2022-07-29T12:02:51;34.00;27.70
1135;DHT22;556;53.550;10.048;2022-07-29T12:05:19;34.10;28.10
1135;DHT22;556;53.550;10.048;2022-07-29T12:07:47;34.30;27.90
1135;DHT22;556;53.550;10.048;2022-07-29T12:10:15;34.30;27.80
1135;DHT22;556;53.550;10.048;2022-07-29T12:12:42;34.20;27.80
1135;DHT22;556;53.550;10.048;2022-07-29T12:15:15;34.20;27.70
1135;DHT22;556;53.550;10.048;2022-07-29T12:17:47;34.30;27.60
1135;DHT22;556;53.550;10.048;2022-07-29T12:20:22;34.30;27.10
1135;DHT22;556;53.550;10.048;2022-07-29T12:22:49;34.30;27.40
1135;DHT22;556;53.550;10.048;2022-07-29T12:25:16;34.10;27.50
1135;DHT22;556;53.550;10.048;2022-07-29T12:27:44;33.90;28.00
1135;DHT22;556;53.550;10.048;2022-07-29T12:30:14;33.80;27.50
1135;DHT22;556;53.550;10.048;2022-07-29T12:32:44;33.60;27.60
1135;DHT22;556;53.550;10.048;2022-07-29T12:35:14;33.60;27.20
1135;DHT22;556;53.550;10.048;2022-07-29T12:37:43;33.60;27.20
1135;DHT22;556;53.550;10.048;2022-07-29T12:40:12;33.60;27.60
1135;DHT22;556;53.550;10.048;2022-07-29T12:42:40;33.60;27.50
1135;DHT22;556;53.550;10.048;2022-07-29T12:45:08;33.70;27.40
1135;DHT22;556;53.550;10.048;2022-07-29T12:47:53;33.60;27.40
1135;DHT22;556;53.550;10.048;2022-07-29T12:50:21;33.60;27.40
1135;DHT22;556;53.550;10.048;2022-07-29T12:52:50;33.70;27.50
1135;DHT22;556;53.550;10.048;2022-07-29T12:55:42;34.10;27.40
1135;DHT22;556;53.550;10.048;2022-07-29T12:58:10;34.90;27.10
1135;DHT22;556;53.550;10.048;2022-07-29T13:00:37;35.90;26.90
1135;DHT22;556;53.550;10.048;2022-07-29T13:03:05;36.70;26.50
1135;DHT22;556;53.550;10.048;2022-07-29T13:05:40;37.40;26.10
1135;DHT22;556;53.550;10.048;2022-07-29T13:08:12;38.20;25.80
1135;DHT22;556;53.550;10.048;2022-07-29T13:10:39;38.90;25.50
1135;DHT22;556;53.550;10.048;2022-07-29T13:13:08;39.60;25.20
1135;DHT22;556;53.550;10.048;2022-07-29T13:15:36;40.20;24.90
1135;DHT22;556;53.550;10.048;2022-07-29T13:18:29;41.00;24.60
1135;DHT22;556;53.550;10.048;2022-07-29T13:20:57;42.30;23.90
1135;DHT22;556;53.550;10.048;2022-07-29T13:23:24;43.30;23.70
1135;DHT22;556;53.550;10.048;2022-07-29T13:25:51;44.10;23.30
1135;DHT22;556;53.550;10.048;2022-07-29T13:28:18;44.70;22.90
1135;DHT22;556;53.550;10.048;2022-07-29T13:30:47;45.30;22.60
1135;DHT22;556;53.550;10.048;2022-07-29T13:33:14;45.60;22.30
1135;DHT22;556;53.550;10.048;2022-07-29T13:35:42;46.10;22.10
1135;DHT22;556;53.550;10.048;2022-07-29T13:38:09;46.40;21.70
1135;DHT22;556;53.550;10.048;2022-07-29T13:40:37;46.20;21.70
1135;DHT22;556;53.550;10.048;2022-07-29T13:43:04;46.50;21.50
1135;DHT22;556;53.550;10.048;2022-07-29T13:45:31;46.90;21.30
1135;DHT22;556;53.550;10.048;2022-07-29T13:47:58;47.00;21.30
1135;DHT22;556;53.550;10.048;2022-07-29T13:50:25;47.10;21.30
1135;DHT22;556;53.550;10.048;2022-07-29T13:52:54;47.10;20.90
1135;DHT22;556;53.550;10.048;2022-07-29T13:55:21;46.90;21.40
1135;DHT22;556;53.550;10.048;2022-07-29T13:57:48;46.00;21.60
1135;DHT22;556;53.550;10.048;2022-07-29T14:00:15;44.60;21.90
1135;DHT22;556;53.550;10.048;2022-07-29T14:02:42;43.40;22.40
1135;DHT22;556;53.550;10.048;2022-07-29T14:05:09;42.10;22.80
1135;DHT22;556;53.550;10.048;2022-07-29T14:07:36;41.00;23.60
1135;DHT22;556;53.550;10.048;2022-07-29T14:10:06;40.00;23.50
1135;DHT22;556;53.550;10.048;2022-07-29T14:12:33;39.30;24.40
1135;DHT22;556;53.550;10.048;2022-07-29T14:15:01;38.90;24.10
1135;DHT22;556;53.550;10.048;2022-07-29T14:17:28;38.70;24.20
1135;DHT22;556;53.550;10.048;2022-07-29T14:19:55;38.30;24.30
1135;DHT22;556;53.550;10.048;2022-07-29T14:22:22;37.40;24.30
1135;DHT22;556;53.550;10.048;2022-07-29T14:24:51;37.10;24.80
1135;DHT22;556;53.550;10.048;2022-07-29T14:27:19;36.40;25.10
1135;DHT22;556;53.550;10.048;2022-07-29T14:29:46;35.70;25.50
1135;DHT22;556;53.550;10.048;2022-07-29T14:32:13;35.20;25.70
1135;DHT22;556;53.550;10.048;2022-07-29T14:34:41;34.70;26.00
1135;DHT22;556;53.550;10.048;2022-07-29T14:37:08;34.30;26.20
1135;DHT22;556;53.550;10.048;2022-07-29T14:39:36;34.10;26.40
1135;DHT22;556;53.550;10.048;2022-07-29T14:42:03;33.90;26.40
1135;DHT22;556;53.550;10.048;2022-07-29T14:44:32;33.90;26.60
1135;DHT22;556;53.550;10.048;2022-07-29T14:47:00;34.40;26.50
1135;DHT22;556;53.550;10.048;2022-07-29T14:49:27;35.40;26.30
1135;DHT22;556;53.550;10.048;2022-07-29T14:51:54;36.70;25.60
1135;DHT22;556;53.550;10.048;2022-07-29T14:54:21;37.60;25.70
1135;DHT22;556;53.550;10.048;2022-07-29T14:56:48;38.60;25.40
1135;DHT22;556;53.550;10.048;2022-07-29T14:59:16;39.40;25.00
1135;DHT22;556;53.550;10.048;2022-07-29T15:01:46;40.00;24.70
1135;DHT22;556;53.550;10.048;2022-07-29T15:04:13;40.50;24.50
1135;DHT22;556;53.550;10.048;2022-07-29T15:06:40;40.90;24.30
1135;DHT22;556;53.550;10.048;2022-07-29T15:09:07;40.70;24.30
1135;DHT22;556;53.550;10.048;2022-07-29T15:11:34;40.70;24.40
1135;DHT22;556;53.550;10.048;2022-07-29T15:14:01;41.00;24.40
1135;DHT22;556;53.550;10.048;2022-07-29T15:16:28;41.40;24.20
1135;DHT22;556;53.550;10.048;2022-07-29T15:18:56;41.90;24.10
1135;DHT22;556;53.550;10.048;2022-07-29T15:21:24;42.40;23.90
1135;DHT22;556;53.550;10.048;2022-07-29T15:23:51;42.70;23.70
1135;DHT22;556;53.550;10.048;2022-07-29T15:26:18;43.10;23.50
1135;DHT22;556;53.550;10.048;2022-07-29T15:28:45;43.30;23.40
1135;DHT22;556;53.550;10.048;2022-07-29T15:31:12;43.60;23.30
1135;DHT22;556;53.550;10.048;2022-07-29T15:33:41;43.80;23.10
1135;DHT22;556;53.550;10.048;2022-07-29T15:36:10;43.80;23.00
1135;DHT22;556;53.550;10.048;2022-07-29T15:38:38;43.40;23.00
1135;DHT22;556;53.550;10.048;2022-07-29T15:41:06;43.10;23.10
1135;DHT22;556;53.550;10.048;2022-07-29T15:43:33;42.90;23.20
1135;DHT22;556;53.550;10.048;2022-07-29T15:46:01;42.90;23.20
1135;DHT22;556;53.550;10.048;2022-07-29T15:48:46;43.10;23.60
1135;DHT22;556;53.550;10.048;2022-07-29T15:51:14;43.30;23.10
1135;DHT22;556;53.550;10.048;2022-07-29T15:53:41;43.20;23.00
1135;DHT22;556;53.550;10.048;2022-07-29T15:56:08;43.10;23.00
1135;DHT22;556;53.550;10.048;2022-07-29T15:58:35;43.30;23.00
1135;DHT22;556;53.550;10.048;2022-07-29T16:01:03;43.30;22.80
1135;DHT22;556;53.550;10.048;2022-07-29T16:03:30;43.30;22.80
1135;DHT22;556;53.550;10.048;2022-07-29T16:05:58;43.30;22.80
1135;DHT22;556;53.550;10.048;2022-07-29T16:08:26;43.40;22.80
1135;DHT22;556;53.550;10.048;2022-07-29T16:10:53;43.30;22.80
1135;DHT22;556;53.550;10.048;2022-07-29T16:13:20;43.10;22.80
1135;DHT22;556;53.550;10.048;2022-07-29T16:15:47;42.80;22.90
1135;DHT22;556;53.550;10.048;2022-07-29T16:18:15;42.30;23.00
1135;DHT22;556;53.550;10.048;2022-07-29T16:20:42;41.60;23.20
1135;DHT22;556;53.550;10.048;2022-07-29T16:23:09;41.00;23.50